createdAt,value
2023-11-01T00:02:45.412Z,8.71
2023-11-01T00:05:49.350Z,8.69
2023-11-01T00:08:51.448Z,8.68
2023-11-01T00:11:55.357Z,8.66
2023-11-01T00:15:00.194Z,8.64
2023-11-01T00:18:02.014Z,8.62
2023-11-01T00:21:05.149Z,8.61
2023-11-01T00:24:07.176Z,8.60
2023-11-01T00:27:09.378Z,8.57
2023-11-01T00:30:12.996Z,8.56
2023-11-01T00:33:14.941Z,8.54
2023-11-01T00:36:17.042Z,8.50
2023-11-01T00:39:19.124Z,8.49
2023-11-01T00:42:21.187Z,8.49
2023-11-01T00:45:24.754Z,8.48
2023-11-01T00:48:26.545Z,8.48
2023-11-01T00:51:28.465Z,8.47
2023-11-01T00:54:30.668Z,8.45
2023-11-01T00:57:34.063Z,8.45
2023-11-01T01:00:38.253Z,8.46
2023-11-01T01:03:40.604Z,8.47
2023-11-01T01:06:42.736Z,8.48
2023-11-01T01:09:45.108Z,8.47
2023-11-01T01:12:47.811Z,8.47
2023-11-01T01:15:51.850Z,8.48
2023-11-01T01:18:53.903Z,8.52
2023-11-01T01:21:56.041Z,8.55
2023-11-01T01:24:58.288Z,8.59
2023-11-01T01:28:00.574Z,8.61
2023-11-01T01:31:04.884Z,8.63
2023-11-01T01:34:07.097Z,8.63
2023-11-01T01:37:09.385Z,8.62
2023-11-01T01:40:11.980Z,8.65
2023-11-01T01:43:20.026Z,8.68
2023-11-01T01:46:25.511Z,8.68
2023-11-01T01:49:33.118Z,8.69
2023-11-01T01:52:39.586Z,8.73
2023-11-01T01:55:41.725Z,8.75
2023-11-01T01:58:46.017Z,8.80
2023-11-01T02:01:50.073Z,8.81
2023-11-01T02:04:52.130Z,8.83
2023-11-01T02:07:55.175Z,8.83
2023-11-01T02:10:57.010Z,8.83
2023-11-01T02:13:59.275Z,8.82
2023-11-01T02:17:02.616Z,8.81
2023-11-01T02:20:05.739Z,8.82
2023-11-01T02:23:09.984Z,8.85
2023-11-01T02:26:14.770Z,8.87
2023-11-01T02:29:19.651Z,8.86
2023-11-01T02:32:23.917Z,8.85
2023-11-01T02:35:26.332Z,8.81
2023-11-01T02:38:28.592Z,8.86
2023-11-01T02:41:31.993Z,8.88
2023-11-01T02:44:35.924Z,8.87
2023-11-01T02:47:38.580Z,8.87
2023-11-01T02:50:43.212Z,8.80
2023-11-01T02:53:45.477Z,8.88
2023-11-01T02:56:48.999Z,8.86
2023-11-01T02:59:50.896Z,8.87
2023-11-01T03:02:55.767Z,8.87
2023-11-01T03:05:57.793Z,8.88
2023-11-01T03:09:00.297Z,8.89
2023-11-01T03:12:06.402Z,8.90
2023-11-01T03:15:09.268Z,8.92
2023-11-01T03:18:11.143Z,8.92
2023-11-01T03:21:13.168Z,8.95
2023-11-01T03:24:15.051Z,8.96
2023-11-01T03:27:18.402Z,8.96
2023-11-01T03:30:24.965Z,8.96
2023-11-01T03:33:26.898Z,8.94
2023-11-01T03:36:28.797Z,8.92
2023-11-01T03:39:30.616Z,8.90
2023-11-01T03:42:34.390Z,8.90
2023-11-01T03:45:36.494Z,8.89
2023-11-01T03:48:41.697Z,8.90
2023-11-01T03:51:46.491Z,8.92
2023-11-01T03:54:48.521Z,8.94
2023-11-01T03:57:51.978Z,8.95
2023-11-01T04:00:57.679Z,8.94
2023-11-01T04:03:59.655Z,8.92
2023-11-01T04:07:01.883Z,8.93
2023-11-01T04:10:04.986Z,8.94
2023-11-01T04:13:09.675Z,8.96
2023-11-01T04:16:11.997Z,8.97
2023-11-01T04:19:14.214Z,8.97
2023-11-01T04:22:16.047Z,8.97
2023-11-01T04:25:18.276Z,8.95
2023-11-01T04:28:21.831Z,8.92
2023-11-01T04:31:27.874Z,8.90
2023-11-01T04:34:29.995Z,8.89
2023-11-01T04:37:32.309Z,8.89
2023-11-01T04:40:35.572Z,8.81
2023-11-01T04:43:38.889Z,8.86
2023-11-01T04:46:41.704Z,8.86
2023-11-01T04:49:44.872Z,8.87
2023-11-01T04:52:46.997Z,8.89
2023-11-01T04:55:49.290Z,8.90
2023-11-01T04:58:52.860Z,8.89
2023-11-01T05:01:55.208Z,8.88
2023-11-01T05:04:57.162Z,8.86
2023-11-01T05:07:59.279Z,8.87
2023-11-01T05:11:01.425Z,8.86
2023-11-01T05:14:04.824Z,8.86
2023-11-01T05:17:07.764Z,8.85
2023-11-01T05:20:14.043Z,8.87
2023-11-01T05:23:16.509Z,8.89
2023-11-01T05:26:19.236Z,8.89
2023-11-01T05:29:22.696Z,8.89
2023-11-01T05:32:25.669Z,8.91
2023-11-01T05:35:27.645Z,8.91
2023-11-01T05:38:29.609Z,8.90
2023-11-01T05:41:31.823Z,8.92
2023-11-01T05:44:35.350Z,8.92
2023-11-01T05:47:37.604Z,8.94
2023-11-01T05:50:42.494Z,8.96
2023-11-01T05:53:46.994Z,8.97
2023-11-01T05:56:49.044Z,8.97
2023-11-01T05:59:52.783Z,8.96
2023-11-01T06:02:57.236Z,8.96
2023-11-01T06:05:59.869Z,8.95
2023-11-01T06:09:02.493Z,8.97
2023-11-01T06:12:07.630Z,8.96
2023-11-01T06:15:12.952Z,8.96
2023-11-01T06:18:15.385Z,8.96
2023-11-01T06:21:17.287Z,8.98
2023-11-01T06:24:20.273Z,8.97
2023-11-01T06:27:24.711Z,8.98
2023-11-01T06:30:30.354Z,8.99
2023-11-01T06:33:32.397Z,8.99
2023-11-01T06:36:34.735Z,9.01
2023-11-01T06:39:37.013Z,9.00
2023-11-01T06:42:38.966Z,9.04
2023-11-01T06:45:42.192Z,9.04
2023-11-01T06:48:44.716Z,9.07
2023-11-01T06:51:46.796Z,9.07
2023-11-01T06:54:49.301Z,9.09
2023-11-01T06:57:52.822Z,9.10
2023-11-01T07:00:56.758Z,9.11
2023-11-01T07:03:59.083Z,9.12
2023-11-01T07:07:01.285Z,9.14
2023-11-01T07:10:04.359Z,9.15
2023-11-01T07:13:06.446Z,9.18
2023-11-01T07:16:10.005Z,9.17
2023-11-01T07:19:12.282Z,9.18
2023-11-01T07:22:14.247Z,9.18
2023-11-01T07:25:17.059Z,9.20
2023-11-01T07:28:20.929Z,9.24
2023-11-01T07:31:24.582Z,9.26
2023-11-01T07:34:26.361Z,9.29
2023-11-01T07:37:28.495Z,9.32
2023-11-01T07:40:30.761Z,9.33
2023-11-01T07:43:33.065Z,9.35
2023-11-01T07:46:36.663Z,9.35
2023-11-01T07:49:38.965Z,9.34
2023-11-01T07:52:41.296Z,9.37
2023-11-01T07:55:43.423Z,9.37
2023-11-01T07:58:45.369Z,9.37
2023-11-01T08:01:49.184Z,9.37
2023-11-01T08:04:54.946Z,9.36
2023-11-01T08:07:57.015Z,9.35
2023-11-01T08:10:59.076Z,9.35
2023-11-01T08:14:01.156Z,9.37
2023-11-01T08:17:04.750Z,9.37
2023-11-01T08:20:08.260Z,9.39
2023-11-01T08:23:10.632Z,9.42
2023-11-01T08:26:15.750Z,9.42
2023-11-01T08:29:17.884Z,9.45
2023-11-01T08:32:21.177Z,9.45
2023-11-01T08:35:24.317Z,9.45
2023-11-01T08:38:26.385Z,9.46
2023-11-01T08:41:33.501Z,9.46
2023-11-01T08:44:35.624Z,9.40
2023-11-01T08:47:40.917Z,9.48
2023-11-01T08:50:43.950Z,9.50
2023-11-01T08:53:46.061Z,9.51
2023-11-01T08:56:48.332Z,9.54
2023-11-01T08:59:50.988Z,9.56
2023-11-01T09:02:55.813Z,9.57
2023-11-01T09:05:59.284Z,9.57
2023-11-01T09:09:01.312Z,9.59
2023-11-01T09:12:03.695Z,9.61
2023-11-01T09:15:05.954Z,9.63
2023-11-01T09:18:10.037Z,9.68
2023-11-01T09:21:11.957Z,9.71
2023-11-01T09:24:15.909Z,9.77
2023-11-01T09:27:18.341Z,9.81
2023-11-01T09:30:20.698Z,9.85
2023-11-01T09:33:24.722Z,9.91
2023-11-01T09:36:27.163Z,9.96
2023-11-01T09:39:29.719Z,9.99
2023-11-01T09:42:31.999Z,10.04
2023-11-01T09:45:34.275Z,10.07
2023-11-01T09:48:38.652Z,10.16
2023-11-01T09:51:43.748Z,10.23
2023-11-01T09:54:48.530Z,10.32
2023-11-01T09:57:50.641Z,10.42
2023-11-01T10:00:57.278Z,10.47
2023-11-01T10:04:02.606Z,10.57
2023-11-01T10:07:05.846Z,10.64
2023-11-01T10:10:08.835Z,10.70
2023-11-01T10:13:11.309Z,10.76
2023-11-01T10:16:14.280Z,10.82
2023-11-01T10:19:17.708Z,10.86
2023-11-01T10:22:20.031Z,10.96
2023-11-01T10:25:22.251Z,11.04
2023-11-01T10:28:24.730Z,11.11
2023-11-01T10:31:26.647Z,11.18
2023-11-01T10:34:30.727Z,11.26
2023-11-01T10:37:32.628Z,11.22
2023-11-01T10:40:35.529Z,11.26
2023-11-01T10:43:37.464Z,11.22
2023-11-01T10:46:39.709Z,11.25
2023-11-01T10:49:44.648Z,11.28
2023-11-01T10:52:48.031Z,11.28
2023-11-01T10:55:51.805Z,11.31
2023-11-01T10:58:56.128Z,11.33
2023-11-01T11:02:02.183Z,11.40
2023-11-01T11:05:08.805Z,11.42
2023-11-01T11:08:11.689Z,11.49
2023-11-01T11:11:18.584Z,11.61
2023-11-01T11:14:35.391Z,11.68
2023-11-01T11:17:39.681Z,11.67
2023-11-01T11:20:43.228Z,11.66
2023-11-01T11:23:45.932Z,11.65
2023-11-01T11:26:48.229Z,11.65
2023-11-01T11:29:50.192Z,11.70
2023-11-01T11:33:06.602Z,11.84
2023-11-01T11:36:15.073Z,11.86
2023-11-01T11:39:17.335Z,11.92
2023-11-01T11:42:46.331Z,11.94
2023-11-01T11:45:48.471Z,11.98
2023-11-01T11:48:53.728Z,12.03
2023-11-01T11:51:58.078Z,12.02
2023-11-01T11:55:00.278Z,12.05
2023-11-01T11:58:02.268Z,12.08
2023-11-01T12:01:07.970Z,12.11
2023-11-01T12:04:10.673Z,12.14
2023-11-01T12:07:20.201Z,12.19
2023-11-01T12:10:22.308Z,12.26
2023-11-01T12:13:39.498Z,12.31
2023-11-01T12:16:41.932Z,12.29
2023-11-01T12:19:44.912Z,12.25
2023-11-01T12:22:48.097Z,12.28
2023-11-01T12:25:49.864Z,12.58
2023-11-01T12:28:51.684Z,12.72
2023-11-01T12:32:00.241Z,12.77
2023-11-01T12:35:06.040Z,12.73
2023-11-01T12:38:19.004Z,12.81
2023-11-01T12:41:21.026Z,12.90
2023-11-01T12:44:26.237Z,13.00
2023-11-01T12:47:32.821Z,12.88
2023-11-01T12:50:36.853Z,12.79
2023-11-01T12:53:41.474Z,12.80
2023-11-01T12:56:43.560Z,12.82
2023-11-01T12:59:46.545Z,12.70
2023-11-01T13:02:48.765Z,12.70
2023-11-01T13:05:51.808Z,12.58
2023-11-01T13:08:55.718Z,12.48
2023-11-01T13:11:58.642Z,12.42
2023-11-01T13:15:00.940Z,12.43
2023-11-01T13:18:02.995Z,12.55
2023-11-01T13:21:05.139Z,12.57
2023-11-01T13:24:09.016Z,12.60
2023-11-01T13:27:11.229Z,12.61
2023-11-01T13:30:15.903Z,12.54
2023-11-01T13:33:18.232Z,12.41
2023-11-01T13:36:20.368Z,12.43
2023-11-01T13:39:24.502Z,12.34
2023-11-01T13:42:26.664Z,12.31
2023-11-01T13:45:28.465Z,12.23
2023-11-01T13:48:30.855Z,12.19
2023-11-01T13:51:32.925Z,12.15
2023-11-01T13:54:36.285Z,12.13
2023-11-01T13:57:38.282Z,12.14
2023-11-01T14:00:40.695Z,12.22
2023-11-01T14:03:44.362Z,12.35
2023-11-01T14:06:47.627Z,12.36
2023-11-01T14:09:53.120Z,12.33
2023-11-01T14:12:55.245Z,12.30
2023-11-01T14:15:58.582Z,12.21
2023-11-01T14:19:00.613Z,12.12
2023-11-01T14:22:02.570Z,12.02
2023-11-01T14:25:06.828Z,11.99
2023-11-01T14:28:08.744Z,11.96
2023-11-01T14:31:10.764Z,11.92
2023-11-01T14:34:12.912Z,11.87
2023-11-01T14:37:15.175Z,11.88
2023-11-01T14:40:18.404Z,11.84
2023-11-01T14:43:20.870Z,11.82
2023-11-01T14:46:23.375Z,11.80
2023-11-01T14:49:26.393Z,11.78
2023-11-01T14:52:29.356Z,11.78
2023-11-01T14:55:32.619Z,11.73
2023-11-01T14:58:34.614Z,11.76
2023-11-01T15:01:37.706Z,11.70
2023-11-01T15:04:39.592Z,11.68
2023-11-01T15:07:41.678Z,11.67
2023-11-01T15:10:44.761Z,11.63
2023-11-01T15:13:46.740Z,11.62
2023-11-01T15:16:53.370Z,11.58
2023-11-01T15:19:55.227Z,11.53
2023-11-01T15:22:57.685Z,11.51
2023-11-01T15:26:08.197Z,11.45
2023-11-01T15:29:13.033Z,11.47
2023-11-01T15:32:16.329Z,11.43
2023-11-01T15:35:18.792Z,11.45
2023-11-01T15:38:20.707Z,11.50
2023-11-01T15:41:26.030Z,11.44
2023-11-01T15:44:27.781Z,11.36
2023-11-01T15:47:29.840Z,11.41
2023-11-01T15:50:31.741Z,11.32
2023-11-01T15:53:35.384Z,11.27
2023-11-01T15:56:38.962Z,11.29
2023-11-01T15:59:41.061Z,11.27
2023-11-01T16:02:43.129Z,11.28
2023-11-01T16:05:47.216Z,11.24
2023-11-01T16:08:49.734Z,11.25
2023-11-01T16:11:53.760Z,11.23
2023-11-01T16:14:55.751Z,11.18
2023-11-01T16:17:57.689Z,11.17
2023-11-01T16:21:00.246Z,11.22
2023-11-01T16:24:03.127Z,11.18
2023-11-01T16:27:06.702Z,11.15
2023-11-01T16:30:09.240Z,11.16
2023-11-01T16:33:11.172Z,11.17
2023-11-01T16:36:13.403Z,11.20
2023-11-01T16:39:15.423Z,11.13
2023-11-01T16:42:18.880Z,11.11
2023-11-01T16:45:20.649Z,11.11
2023-11-01T16:48:23.416Z,11.22
2023-11-01T16:51:25.337Z,11.23
2023-11-01T16:54:27.565Z,11.22
2023-11-01T16:57:31.186Z,11.27
2023-11-01T17:00:33.509Z,11.18
2023-11-01T17:03:35.866Z,11.20
2023-11-01T17:06:38.673Z,11.19
2023-11-01T17:09:40.771Z,11.20
2023-11-01T17:12:44.307Z,11.26
2023-11-01T17:15:46.122Z,11.26
2023-11-01T17:18:48.043Z,11.19
2023-11-01T17:21:50.527Z,11.14
2023-11-01T17:24:52.424Z,11.10
2023-11-01T17:27:56.004Z,11.08
2023-11-01T17:30:57.964Z,11.10
2023-11-01T17:33:59.788Z,11.04
2023-11-01T17:37:02.540Z,11.04
2023-11-01T17:40:08.485Z,11.03
2023-11-01T17:43:14.380Z,11.02
2023-11-01T17:46:19.815Z,10.94
2023-11-01T17:49:40.566Z,10.90
2023-11-01T17:52:44.069Z,10.85
2023-11-01T17:55:46.160Z,10.83
2023-11-01T17:58:50.866Z,10.79
2023-11-01T18:01:52.747Z,10.81
2023-11-01T18:04:54.877Z,10.85
2023-11-01T18:07:56.679Z,10.84
2023-11-01T18:10:59.109Z,10.85
2023-11-01T18:14:02.391Z,10.81
2023-11-01T18:17:10.017Z,10.88
2023-11-01T18:20:16.547Z,10.88
2023-11-01T18:23:18.732Z,10.93
2023-11-01T18:26:21.033Z,10.90
2023-11-01T18:29:24.602Z,10.87
2023-11-01T18:32:27.031Z,10.98
2023-11-01T18:35:33.111Z,10.95
2023-11-01T18:38:47.245Z,10.92
2023-11-01T18:41:49.896Z,10.88
2023-11-01T18:44:53.512Z,10.93
2023-11-01T18:47:57.716Z,10.93
2023-11-01T18:50:59.770Z,10.95
2023-11-01T18:54:01.496Z,10.93
2023-11-01T18:57:05.510Z,10.90
2023-11-01T19:00:11.245Z,10.90
2023-11-01T19:03:18.336Z,10.91
2023-11-01T19:06:20.535Z,10.87
2023-11-01T19:09:22.570Z,10.87
2023-11-01T19:12:27.161Z,10.92
2023-11-01T19:15:48.244Z,10.95
2023-11-01T19:18:54.871Z,10.95
2023-11-01T19:21:57.501Z,10.94
2023-11-01T19:25:00.504Z,10.94
2023-11-01T19:28:03.486Z,10.88
2023-11-01T19:31:05.803Z,10.91
2023-11-01T19:34:09.321Z,10.91
2023-11-01T19:37:11.621Z,10.98
2023-11-01T19:40:13.731Z,10.97
2023-11-01T19:43:15.583Z,10.96
2023-11-01T19:46:20.889Z,10.95
2023-11-01T19:49:24.293Z,11.01
2023-11-01T19:52:26.144Z,11.00
2023-11-01T19:55:28.266Z,10.97
2023-11-01T19:58:30.598Z,10.96
2023-11-01T20:01:34.364Z,10.94
2023-11-01T20:04:40.876Z,10.95
2023-11-01T20:07:43.179Z,10.93
2023-11-01T20:10:45.373Z,10.94
2023-11-01T20:13:47.554Z,10.99
2023-11-01T20:16:49.685Z,11.00
2023-11-01T20:19:53.186Z,10.99
2023-11-01T20:22:55.582Z,10.97
2023-11-01T20:25:57.588Z,11.02
2023-11-01T20:29:00.703Z,10.99
2023-11-01T20:32:02.797Z,10.97
2023-11-01T20:35:06.387Z,10.98
2023-11-01T20:38:08.726Z,10.94
2023-11-01T20:41:10.896Z,10.90
2023-11-01T20:44:13.261Z,10.91
2023-11-01T20:47:16.997Z,10.88
2023-11-01T20:50:20.504Z,10.87
2023-11-01T20:53:22.710Z,10.90
2023-11-01T20:56:24.907Z,10.88
2023-11-01T20:59:29.474Z,10.85
2023-11-01T21:02:31.578Z,10.82
2023-11-01T21:05:35.139Z,10.79
2023-11-01T21:08:37.276Z,10.77
2023-11-01T21:11:39.216Z,10.71
2023-11-01T21:14:42.257Z,10.70
2023-11-01T21:17:45.545Z,10.70
2023-11-01T21:20:49.150Z,10.71
2023-11-01T21:23:51.027Z,10.67
2023-11-01T21:26:53.039Z,10.64
2023-11-01T21:29:55.388Z,10.59
2023-11-01T21:32:58.315Z,10.54
2023-11-01T21:36:02.327Z,10.52
2023-11-01T21:39:05.388Z,10.48
2023-11-01T21:42:07.396Z,10.39
2023-11-01T21:45:11.638Z,10.33
2023-11-01T21:48:16.370Z,10.24
2023-11-01T21:51:19.906Z,10.20
2023-11-01T21:54:24.028Z,10.13
2023-11-01T21:57:27.659Z,10.04
2023-11-01T22:00:29.785Z,9.97
2023-11-01T22:03:40.757Z,9.91
2023-11-01T22:06:45.162Z,9.86
2023-11-01T22:09:47.823Z,9.78
2023-11-01T22:12:50.466Z,9.75
2023-11-01T22:15:52.330Z,9.80
2023-11-01T22:18:55.242Z,9.78
2023-11-01T22:21:58.629Z,9.70
2023-11-01T22:25:03.534Z,9.69
2023-11-01T22:28:08.401Z,9.64
2023-11-01T22:31:14.748Z,9.56
2023-11-01T22:34:16.847Z,9.53
2023-11-01T22:37:20.877Z,9.44
2023-11-01T22:40:22.767Z,9.41
2023-11-01T22:43:25.055Z,9.32
2023-11-01T22:46:28.812Z,9.26
2023-11-01T22:49:31.256Z,9.22
2023-11-01T22:52:35.057Z,9.21
2023-11-01T22:55:41.426Z,9.18
2023-11-01T22:58:44.465Z,9.15
2023-11-01T23:01:46.543Z,9.12
2023-11-01T23:04:50.289Z,9.15
2023-11-01T23:07:57.382Z,9.05
2023-11-01T23:10:59.266Z,9.02
2023-11-01T23:14:01.677Z,8.96
2023-11-01T23:17:05.324Z,8.97
2023-11-01T23:20:07.814Z,8.97
2023-11-01T23:23:12.163Z,8.94
2023-11-01T23:26:14.348Z,8.90
2023-11-01T23:29:19.171Z,8.86
2023-11-01T23:32:21.852Z,8.81
2023-11-01T23:35:23.798Z,8.78
2023-11-01T23:38:29.507Z,8.77
2023-11-01T23:41:42.223Z,8.81
2023-11-01T23:44:44.706Z,8.78
2023-11-01T23:47:50.182Z,8.73
2023-11-01T23:50:52.356Z,8.75
2023-11-01T23:53:56.173Z,8.78
2023-11-01T23:56:58.085Z,8.82
